Portada
METAR-TAF:

METAR-TAF

Aeroports :

Wellington, Nova Zelanda

latitud: 41-20S, longitud: 174-48E, altitud: 12 m

Observació

L'informe es va fer fa 38 minuts, a les 22:00 UTC
Vent 17 kt del Nord amb ràfegues de 27 kt
Temperatura 13°C
Humitat 82%
Pressió 987 hPa
Visibilitat 10 km o més

METAR: NZWN 212200Z AUTO 35017G27KT 9999 BKN021/// BKN029/// 13/10 Q0987 NOSIG

Hora: 10:38 (22:38 UTC)

Pronòstic

L'informe es va fer fa 5 hores i 31 minuts, a les 17:07 UTC
Pronòstic vàlid del 21 a les 18 UTC al 22 a les 18 UTC
Vent 18 kt del Nord amb ràfegues de 30 kt
Visibilitat 10 km o més
Escasses núvols a una alçada de 1500 ft
Cel ennuvolat a una alçada de 2000 ft
xàfecs de pluja
Temporalment
l' 21 a les 18 UTC al 21 a les 21 UTC
Visibilitat: 5000 m
Cel ennuvolat a una alçada de 1200 ft
xàfecs de pluja
Temporalment
l' 22 a les 08 UTC al 22 a les 12 UTC
Visibilitat: 7000 m
xàfecs de pluja

TAF: NZWN 211707Z 2118/2218 36018G30KT 9999 -SHRA FEW015 BKN020 TEMPO 2118/2121 5000 SHRA BKN012 TEMPO 2208/2212 7000 SHRA

Observacions i pronòstics meteorològics de més de 4000 aeroports (METAR i TAF).

Les estacions disponibles són els punts grocs i vermells al mapa.

Posi el ratolí al punt desitjat per veure el nom de l'estació.

Feu clic per veure les observacions i els pronòstics meteorològics.

Per canviar el mapa: feu clic els botons verds amb una creu de color negre per apropar; al botó verd amb un guió per allunyar la imatge; o en les fletxes verdes per a mapes adjacents.


METAR-TAF: